sensor_id;sensor_type;location;lat;lon;timestamp;temperature;humidity
19263;DHT22;9765;52.354;20.884;2023-09-19T10:32:02;19.60;99.90
19263;DHT22;9765;52.354;20.884;2023-09-19T10:37:57;19.60;99.90
19263;DHT22;9765;52.354;20.884;2023-09-19T10:40:38;19.80;99.90
19263;DHT22;9765;52.354;20.884;2023-09-19T10:46:12;19.70;99.90
19263;DHT22;9765;52.354;20.884;2023-09-19T10:48:54;19.70;99.90
19263;DHT22;9765;52.354;20.884;2023-09-19T10:51:47;19.70;99.90
19263;DHT22;9765;52.354;20.884;2023-09-19T10:54:31;19.80;99.90
19263;DHT22;9765;52.354;20.884;2023-09-19T10:57:02;19.80;99.90
19263;DHT22;9765;52.354;20.884;2023-09-19T10:59:42;19.90;99.90
19263;DHT22;9765;52.354;20.884;2023-09-19T11:03:19;19.80;99.90
19263;DHT22;9765;52.354;20.884;2023-09-19T11:06:06;19.90;99.90
19263;DHT22;9765;52.354;20.884;2023-09-19T11:09:13;19.90;99.90
19263;DHT22;9765;52.354;20.884;2023-09-19T11:11:54;20.00;99.90
19263;DHT22;9765;52.354;20.884;2023-09-19T11:14:41;20.20;99.90
19263;DHT22;9765;52.354;20.884;2023-09-19T11:17:41;20.20;99.90
19263;DHT22;9765;52.354;20.884;2023-09-19T11:20:24;20.10;99.90
19263;DHT22;9765;52.354;20.884;2023-09-19T11:23:32;20.20;99.90
19263;DHT22;9765;52.354;20.884;2023-09-19T11:26:10;20.50;99.90
19263;DHT22;9765;52.354;20.884;2023-09-19T11:29:31;20.40;99.90
19263;DHT22;9765;52.354;20.884;2023-09-19T11:32:17;20.40;99.90
19263;DHT22;9765;52.354;20.884;2023-09-19T11:35:09;20.40;99.90
19263;DHT22;9765;52.354;20.884;2023-09-19T11:38:05;20.30;99.90
19263;DHT22;9765;52.354;20.884;2023-09-19T11:44:33;20.30;99.90
19263;DHT22;9765;52.354;20.884;2023-09-19T11:47:04;20.30;99.90
19263;DHT22;9765;52.354;20.884;2023-09-19T11:49:32;20.30;99.90
19263;DHT22;9765;52.354;20.884;2023-09-19T11:52:06;20.40;99.90
19263;DHT22;9765;52.354;20.884;2023-09-19T11:54:42;20.20;99.90
19263;DHT22;9765;52.354;20.884;2023-09-19T11:57:34;20.30;99.90
19263;DHT22;9765;52.354;20.884;2023-09-19T12:00:19;20.30;99.90
19263;DHT22;9765;52.354;20.884;2023-09-19T12:02:53;20.40;99.90
19263;DHT22;9765;52.354;20.884;2023-09-19T12:05:30;20.30;99.90
19263;DHT22;9765;52.354;20.884;2023-09-19T12:07:59;20.30;99.90
19263;DHT22;9765;52.354;20.884;2023-09-19T12:10:45;20.30;99.90
19263;DHT22;9765;52.354;20.884;2023-09-19T12:13:20;20.30;99.90
19263;DHT22;9765;52.354;20.884;2023-09-19T12:15:51;20.30;99.90
19263;DHT22;9765;52.354;20.884;2023-09-19T12:18:29;20.40;99.90
19263;DHT22;9765;52.354;20.884;2023-09-19T12:21:28;20.30;99.90
19263;DHT22;9765;52.354;20.884;2023-09-19T12:24:01;20.30;99.90
19263;DHT22;9765;52.354;20.884;2023-09-19T12:26:39;20.30;99.90
19263;DHT22;9765;52.354;20.884;2023-09-19T12:29:21;20.30;99.90
19263;DHT22;9765;52.354;20.884;2023-09-19T12:31:54;20.30;99.90
19263;DHT22;9765;52.354;20.884;2023-09-19T12:34:32;20.40;99.90
19263;DHT22;9765;52.354;20.884;2023-09-19T12:37:09;20.30;99.90
19263;DHT22;9765;52.354;20.884;2023-09-19T12:39:51;20.60;99.90
19263;DHT22;9765;52.354;20.884;2023-09-19T12:42:22;20.50;99.90
19263;DHT22;9765;52.354;20.884;2023-09-19T12:45:05;20.50;99.90
19263;DHT22;9765;52.354;20.884;2023-09-19T12:48:19;20.60;99.90
19263;DHT22;9765;52.354;20.884;2023-09-19T12:51:09;20.70;99.90
19263;DHT22;9765;52.354;20.884;2023-09-19T12:53:57;20.80;99.90
19263;DHT22;9765;52.354;20.884;2023-09-19T12:56:39;20.90;99.90
19263;DHT22;9765;52.354;20.884;2023-09-19T12:59:29;20.70;99.90
19263;DHT22;9765;52.354;20.884;2023-09-19T13:02:51;20.80;99.90
19263;DHT22;9765;52.354;20.884;2023-09-19T13:06:34;20.80;99.90
19263;DHT22;9765;52.354;20.884;2023-09-19T13:12:58;20.70;99.90
19263;DHT22;9765;52.354;20.884;2023-09-19T13:15:57;20.90;99.90
19263;DHT22;9765;52.354;20.884;2023-09-19T13:18:56;20.80;99.90
19263;DHT22;9765;52.354;20.884;2023-09-19T13:21:30;20.90;99.90
19263;DHT22;9765;52.354;20.884;2023-09-19T13:27:23;21.10;99.90
19263;DHT22;9765;52.354;20.884;2023-09-19T13:30:03;21.00;99.90
19263;DHT22;9765;52.354;20.884;2023-09-19T13:32:36;21.00;99.90
19263;DHT22;9765;52.354;20.884;2023-09-19T13:35:18;21.00;99.90
19263;DHT22;9765;52.354;20.884;2023-09-19T13:38:07;21.00;99.90
19263;DHT22;9765;52.354;20.884;2023-09-19T13:40:57;21.10;99.90
19263;DHT22;9765;52.354;20.884;2023-09-19T13:44:00;21.00;99.90
19263;DHT22;9765;52.354;20.884;2023-09-19T15:06:08;20.90;99.90
19263;DHT22;9765;52.354;20.884;2023-09-19T15:11:55;20.80;99.90
19263;DHT22;9765;52.354;20.884;2023-09-19T15:59:02;20.50;99.90
19263;DHT22;9765;52.354;20.884;2023-09-19T16:01:37;20.50;99.90
19263;DHT22;9765;52.354;20.884;2023-09-19T16:04:09;20.50;99.90
19263;DHT22;9765;52.354;20.884;2023-09-19T16:06:41;20.40;99.90
19263;DHT22;9765;52.354;20.884;2023-09-19T16:09:26;20.40;99.90
19263;DHT22;9765;52.354;20.884;2023-09-19T16:12:09;20.40;99.90
